sensor_id;sensor_type;location;lat;lon;timestamp;temperature;humidity
58363;DHT22;54977;51.510;7.522;2022-09-01T00:01:32;16.60;48.50
58363;DHT22;54977;51.510;7.522;2022-09-01T00:06:35;16.50;48.40
58363;DHT22;54977;51.510;7.522;2022-09-01T00:11:40;16.50;48.40
58363;DHT22;54977;51.510;7.522;2022-09-01T00:16:42;16.40;48.30
58363;DHT22;54977;51.510;7.522;2022-09-01T00:21:46;16.30;48.30
58363;DHT22;54977;51.510;7.522;2022-09-01T00:26:48;16.30;48.40
58363;DHT22;54977;51.510;7.522;2022-09-01T00:31:51;16.30;49.10
58363;DHT22;54977;51.510;7.522;2022-09-01T00:36:54;16.30;48.60
58363;DHT22;54977;51.510;7.522;2022-09-01T00:41:56;16.20;48.70
58363;DHT22;54977;51.510;7.522;2022-09-01T00:46:58;16.10;49.40
58363;DHT22;54977;51.510;7.522;2022-09-01T00:52:05;16.00;49.70
58363;DHT22;54977;51.510;7.522;2022-09-01T00:57:09;15.90;49.90
58363;DHT22;54977;51.510;7.522;2022-09-01T01:02:12;15.80;50.20
58363;DHT22;54977;51.510;7.522;2022-09-01T01:07:15;15.50;50.90
58363;DHT22;54977;51.510;7.522;2022-09-01T01:12:18;15.40;51.20
58363;DHT22;54977;51.510;7.522;2022-09-01T01:17:22;15.40;51.30
58363;DHT22;54977;51.510;7.522;2022-09-01T01:27:49;15.40;51.10
58363;DHT22;54977;51.510;7.522;2022-09-01T01:32:51;14.90;52.40
58363;DHT22;54977;51.510;7.522;2022-09-01T01:37:57;14.80;53.20
58363;DHT22;54977;51.510;7.522;2022-09-01T01:43:02;14.70;53.40
58363;DHT22;54977;51.510;7.522;2022-09-01T07:57:54;14.60;53.80
58363;DHT22;54977;51.510;7.522;2022-09-01T08:02:58;17.60;47.80
58363;DHT22;54977;51.510;7.522;2022-09-01T08:08:00;17.80;46.90
58363;DHT22;54977;51.510;7.522;2022-09-01T08:13:02;17.60;46.30
58363;DHT22;54977;51.510;7.522;2022-09-01T08:18:06;17.70;45.50
58363;DHT22;54977;51.510;7.522;2022-09-01T08:23:08;18.30;45.20
58363;DHT22;54977;51.510;7.522;2022-09-01T08:28:10;18.30;46.20
58363;DHT22;54977;51.510;7.522;2022-09-01T08:33:14;18.70;44.70
58363;DHT22;54977;51.510;7.522;2022-09-01T08:38:17;18.70;44.50
58363;DHT22;54977;51.510;7.522;2022-09-01T09:08:53;18.80;43.30
58363;DHT22;54977;51.510;7.522;2022-09-01T09:24:17;20.10;41.00
58363;DHT22;54977;51.510;7.522;2022-09-01T09:29:22;20.50;39.90
58363;DHT22;54977;51.510;7.522;2022-09-01T09:34:33;21.00;39.70
58363;DHT22;54977;51.510;7.522;2022-09-01T09:39:35;21.00;39.00
58363;DHT22;54977;51.510;7.522;2022-09-01T09:49:44;20.90;39.80
58363;DHT22;54977;51.510;7.522;2022-09-01T09:55:02;21.30;39.00
58363;DHT22;54977;51.510;7.522;2022-09-01T10:00:07;22.00;37.80
58363;DHT22;54977;51.510;7.522;2022-09-01T10:05:27;21.90;38.20
58363;DHT22;54977;51.510;7.522;2022-09-01T10:10:37;21.80;38.20
58363;DHT22;54977;51.510;7.522;2022-09-01T12:24:12;22.40;37.60
58363;DHT22;54977;51.510;7.522;2022-09-01T13:10:23;24.10;30.70
58363;DHT22;54977;51.510;7.522;2022-09-01T13:15:28;28.70;25.20
58363;DHT22;54977;51.510;7.522;2022-09-01T13:25:34;29.70;25.60
58363;DHT22;54977;51.510;7.522;2022-09-01T13:30:38;32.50;23.30
58363;DHT22;54977;51.510;7.522;2022-09-01T13:35:40;32.40;22.30
58363;DHT22;54977;51.510;7.522;2022-09-01T13:40:42;31.40;22.30
58363;DHT22;54977;51.510;7.522;2022-09-01T13:45:48;32.40;23.30
58363;DHT22;54977;51.510;7.522;2022-09-01T13:50:51;33.10;22.30
58363;DHT22;54977;51.510;7.522;2022-09-01T13:55:53;34.20;21.70
58363;DHT22;54977;51.510;7.522;2022-09-01T14:00:56;33.20;21.90
58363;DHT22;54977;51.510;7.522;2022-09-01T14:05:59;33.90;20.90
58363;DHT22;54977;51.510;7.522;2022-09-01T14:11:01;35.10;20.70
58363;DHT22;54977;51.510;7.522;2022-09-01T14:16:10;34.70;20.50
58363;DHT22;54977;51.510;7.522;2022-09-01T14:21:13;34.20;20.50
58363;DHT22;54977;51.510;7.522;2022-09-01T14:26:16;34.60;21.10
58363;DHT22;54977;51.510;7.522;2022-09-01T14:31:19;34.20;19.90
58363;DHT22;54977;51.510;7.522;2022-09-01T14:36:24;34.50;20.80
58363;DHT22;54977;51.510;7.522;2022-09-01T14:41:26;35.60;21.00
58363;DHT22;54977;51.510;7.522;2022-09-01T14:46:30;34.70;20.40
58363;DHT22;54977;51.510;7.522;2022-09-01T14:51:33;34.60;20.40
58363;DHT22;54977;51.510;7.522;2022-09-01T14:56:36;33.90;20.30
58363;DHT22;54977;51.510;7.522;2022-09-01T15:01:40;33.00;21.20
58363;DHT22;54977;51.510;7.522;2022-09-01T15:06:42;31.90;22.20
58363;DHT22;54977;51.510;7.522;2022-09-01T15:11:44;32.20;21.10
58363;DHT22;54977;51.510;7.522;2022-09-01T15:16:47;31.70;21.70
58363;DHT22;54977;51.510;7.522;2022-09-01T15:21:50;30.80;22.20
58363;DHT22;54977;51.510;7.522;2022-09-01T15:26:52;30.70;21.80
58363;DHT22;54977;51.510;7.522;2022-09-01T15:36:58;31.00;21.60
